createdAt,value
2023-03-25T00:02:25.466Z,9.40
2023-03-25T00:04:54.834Z,9.40
2023-03-25T00:07:23.396Z,9.40
2023-03-25T00:09:51.561Z,9.40
2023-03-25T00:12:19.869Z,9.40
2023-03-25T00:14:54.715Z,9.30
2023-03-25T00:17:26.648Z,9.30
2023-03-25T00:19:55.517Z,9.20
2023-03-25T00:22:23.593Z,9.20
2023-03-25T00:24:51.848Z,9.20
2023-03-25T00:27:20.027Z,9.20
2023-03-25T00:29:48.386Z,9.20
2023-03-25T00:32:17.210Z,9.10
2023-03-25T00:34:48.184Z,9.10
2023-03-25T00:37:17.858Z,9.10
2023-03-25T00:39:46.250Z,9.10
2023-03-25T00:42:17.064Z,9.10
2023-03-25T00:44:45.308Z,9.00
2023-03-25T00:47:18.395Z,8.90
2023-03-25T00:49:47.934Z,9.00
2023-03-25T00:52:16.834Z,9.00
2023-03-25T00:54:45.889Z,9.00
2023-03-25T00:57:14.059Z,9.00
2023-03-25T00:59:42.115Z,9.00
2023-03-25T01:02:10.610Z,9.00
2023-03-25T01:04:41.601Z,9.00
2023-03-25T01:07:12.694Z,9.00
2023-03-25T01:09:41.709Z,8.90
2023-03-25T01:12:10.051Z,8.90
2023-03-25T01:14:38.549Z,8.90
2023-03-25T01:17:06.749Z,8.80
2023-03-25T01:19:34.850Z,8.70
2023-03-25T01:22:03.026Z,8.70
2023-03-25T01:24:32.481Z,8.70
2023-03-25T01:27:00.513Z,8.70
2023-03-25T01:29:28.961Z,8.60
2023-03-25T01:31:57.423Z,8.60
2023-03-25T01:34:26.116Z,8.50
2023-03-25T01:36:55.809Z,8.30
2023-03-25T01:39:24.611Z,8.40
2023-03-25T01:41:55.267Z,8.40
2023-03-25T01:45:01.507Z,8.40
2023-03-25T01:47:29.942Z,8.40
2023-03-25T01:49:58.160Z,8.30
2023-03-25T01:52:29.810Z,8.30
2023-03-25T01:54:59.890Z,8.30
2023-03-25T01:57:31.533Z,8.50
2023-03-25T01:59:59.880Z,8.30
2023-03-25T02:02:35.055Z,8.30
2023-03-25T02:05:10.746Z,8.20
2023-03-25T02:07:42.820Z,8.20
2023-03-25T02:10:12.965Z,8.10
2023-03-25T02:12:42.876Z,8.10
2023-03-25T02:15:11.958Z,8.10
2023-03-25T02:17:51.394Z,8.00
2023-03-25T02:20:55.700Z,8.00
2023-03-25T02:23:59.148Z,8.00
2023-03-25T02:27:04.966Z,7.90
2023-03-25T02:29:54.708Z,7.90
2023-03-25T02:32:39.181Z,7.90
2023-03-25T02:35:22.195Z,7.80
2023-03-25T02:38:06.731Z,7.70
2023-03-25T02:40:38.854Z,7.70
2023-03-25T02:43:13.565Z,7.60
2023-03-25T02:45:47.656Z,7.70
2023-03-25T02:48:21.491Z,7.70
2023-03-25T02:50:53.440Z,7.60
2023-03-25T02:53:27.189Z,7.60
2023-03-25T02:55:59.294Z,7.60
2023-03-25T02:58:29.957Z,7.50
2023-03-25T03:00:58.945Z,7.60
2023-03-25T03:03:28.960Z,7.50
2023-03-25T03:06:00.460Z,7.50
2023-03-25T03:08:42.518Z,7.50
2023-03-25T03:11:16.623Z,7.50
2023-03-25T03:14:00.927Z,7.40
2023-03-25T03:16:35.071Z,7.40
2023-03-25T03:19:14.555Z,7.40
2023-03-25T03:21:51.557Z,7.30
2023-03-25T03:24:28.361Z,7.30
2023-03-25T03:27:01.668Z,7.30
2023-03-25T03:29:35.773Z,7.30
2023-03-25T03:32:08.773Z,7.30
2023-03-25T03:34:44.859Z,7.20
2023-03-25T03:37:17.145Z,7.20
2023-03-25T03:39:48.815Z,7.20
2023-03-25T03:42:21.423Z,7.10
2023-03-25T03:44:54.311Z,7.10
2023-03-25T03:47:26.361Z,7.10
2023-03-25T03:49:57.441Z,7.00
2023-03-25T03:52:32.025Z,7.00
2023-03-25T03:55:06.754Z,7.00
2023-03-25T03:57:38.414Z,7.00
2023-03-25T04:00:13.628Z,7.00
2023-03-25T04:02:47.759Z,7.00
2023-03-25T04:05:18.025Z,7.00
2023-03-25T04:07:54.977Z,6.90
2023-03-25T04:10:34.957Z,6.90
2023-03-25T04:13:06.720Z,7.00
2023-03-25T04:15:34.855Z,6.90
2023-03-25T04:18:03.889Z,6.90
2023-03-25T04:20:36.883Z,6.90
2023-03-25T04:23:06.000Z,6.90
2023-03-25T04:25:35.528Z,7.00
2023-03-25T04:28:03.435Z,7.00
2023-03-25T04:30:31.564Z,7.10
2023-03-25T04:33:00.951Z,7.10
2023-03-25T04:35:29.190Z,7.10
2023-03-25T04:37:57.385Z,7.20
2023-03-25T04:40:25.827Z,7.20
2023-03-25T04:42:56.847Z,7.20
2023-03-25T04:45:25.464Z,7.20
2023-03-25T04:47:55.517Z,7.20
2023-03-25T04:50:27.256Z,7.20
2023-03-25T04:52:57.608Z,7.20
2023-03-25T04:55:26.152Z,7.30
2023-03-25T04:57:56.105Z,7.30
2023-03-25T05:00:26.193Z,7.30
2023-03-25T05:02:56.300Z,7.30
2023-03-25T05:05:26.011Z,7.30
2023-03-25T05:07:58.467Z,7.30
2023-03-25T05:10:29.580Z,7.30
2023-03-25T05:13:01.663Z,7.30
2023-03-25T05:15:32.745Z,7.40
2023-03-25T05:18:02.146Z,7.30
2023-03-25T05:20:31.021Z,7.30
2023-03-25T05:22:58.979Z,7.30
2023-03-25T05:25:26.942Z,7.30
2023-03-25T05:27:55.062Z,7.30
2023-03-25T05:30:24.609Z,7.30
2023-03-25T05:32:56.715Z,7.30
2023-03-25T05:35:26.775Z,7.30
2023-03-25T05:37:55.949Z,7.30
2023-03-25T05:40:25.381Z,7.40
2023-03-25T05:42:54.981Z,7.40
2023-03-25T05:45:24.732Z,7.40
2023-03-25T05:47:54.245Z,7.40
2023-03-25T05:50:23.012Z,7.40
2023-03-25T05:52:52.031Z,7.40
2023-03-25T05:55:22.599Z,7.40
2023-03-25T05:57:50.943Z,7.40
2023-03-25T06:00:21.442Z,7.40
2023-03-25T06:02:53.419Z,7.50
2023-03-25T06:05:24.051Z,7.50
2023-03-25T06:07:56.554Z,7.50
2023-03-25T06:10:25.260Z,7.60
2023-03-25T06:12:54.340Z,7.60
2023-03-25T06:15:28.770Z,7.60
2023-03-25T06:17:58.807Z,7.60
2023-03-25T06:20:27.435Z,7.60
2023-03-25T06:22:55.404Z,7.60
2023-03-25T06:25:24.578Z,7.60
2023-03-25T06:27:52.727Z,7.70
2023-03-25T06:30:22.616Z,7.70
2023-03-25T06:32:52.714Z,7.80
2023-03-25T06:35:22.242Z,7.80
2023-03-25T06:37:50.490Z,8.00
2023-03-25T06:40:18.797Z,7.90
2023-03-25T06:42:46.953Z,7.90
2023-03-25T06:45:16.276Z,7.90
2023-03-25T06:47:44.431Z,8.00
2023-03-25T06:50:12.624Z,8.00
2023-03-25T06:52:41.910Z,8.10
2023-03-25T06:55:10.673Z,8.20
2023-03-25T06:57:39.018Z,8.20
2023-03-25T07:00:09.936Z,8.20
2023-03-25T07:02:38.165Z,8.20
2023-03-25T07:05:07.352Z,8.30
2023-03-25T07:07:35.521Z,8.30
2023-03-25T07:10:05.105Z,8.40
2023-03-25T07:12:35.836Z,8.40
2023-03-25T07:15:03.898Z,8.50
2023-03-25T07:17:32.084Z,8.50
2023-03-25T07:20:00.329Z,8.50
2023-03-25T07:22:28.364Z,8.60
2023-03-25T07:24:58.441Z,8.60
2023-03-25T07:27:27.821Z,8.70
2023-03-25T07:29:55.784Z,8.70
2023-03-25T07:32:23.785Z,8.80
2023-03-25T07:34:51.755Z,8.70
2023-03-25T07:37:19.738Z,8.80
2023-03-25T07:39:47.706Z,8.90
2023-03-25T07:42:15.652Z,8.90
2023-03-25T07:44:45.074Z,9.00
2023-03-25T07:47:13.070Z,9.10
2023-03-25T07:49:41.432Z,9.20
2023-03-25T07:52:09.429Z,9.30
2023-03-25T07:54:38.535Z,9.30
2023-03-25T07:57:06.576Z,9.50
2023-03-25T07:59:34.602Z,9.50
2023-03-25T08:02:04.036Z,9.50
2023-03-25T08:04:32.428Z,9.60
2023-03-25T08:07:00.817Z,9.60
2023-03-25T08:09:29.046Z,9.70
2023-03-25T08:11:57.088Z,9.80
2023-03-25T08:14:25.124Z,9.90
2023-03-25T08:16:53.190Z,10.00
2023-03-25T08:19:22.654Z,10.00
2023-03-25T08:21:50.973Z,10.10
2023-03-25T08:24:19.093Z,10.10
2023-03-25T08:26:47.156Z,10.10
2023-03-25T08:29:17.499Z,10.10
2023-03-25T08:31:46.912Z,10.20
2023-03-25T08:34:15.369Z,10.20
2023-03-25T08:36:44.881Z,10.30
2023-03-25T08:39:17.241Z,10.30
2023-03-25T08:41:46.174Z,10.40
2023-03-25T08:44:14.248Z,10.40
2023-03-25T08:46:42.400Z,10.50
2023-03-25T08:49:10.556Z,10.50
2023-03-25T08:51:38.592Z,10.50
2023-03-25T08:54:09.084Z,10.50
2023-03-25T08:56:37.137Z,10.60
2023-03-25T08:59:05.409Z,10.50
2023-03-25T09:01:33.473Z,10.60
2023-03-25T09:04:01.486Z,10.40
2023-03-25T09:06:29.491Z,10.60
2023-03-25T09:09:18.194Z,10.70
2023-03-25T09:11:46.347Z,10.70
2023-03-25T09:14:14.400Z,10.70
2023-03-25T09:16:43.141Z,10.70
2023-03-25T09:19:11.618Z,10.70
2023-03-25T09:21:39.768Z,10.70
2023-03-25T09:24:09.240Z,10.70
2023-03-25T09:26:39.412Z,10.70
2023-03-25T09:29:07.541Z,10.70
2023-03-25T09:31:36.050Z,10.70
2023-03-25T09:34:04.078Z,10.70
2023-03-25T09:36:32.620Z,10.70
2023-03-25T09:39:00.676Z,10.70
2023-03-25T09:41:42.367Z,10.60
2023-03-25T09:44:20.157Z,10.60
2023-03-25T09:46:49.032Z,10.60
2023-03-25T09:49:21.520Z,10.50
2023-03-25T09:51:53.738Z,10.50
2023-03-25T09:54:26.134Z,10.60
2023-03-25T09:56:56.609Z,10.70
2023-03-25T09:59:37.732Z,10.70
2023-03-25T10:02:12.283Z,10.70
2023-03-25T10:04:58.942Z,10.80
2023-03-25T10:07:43.283Z,10.70
2023-03-25T10:10:17.049Z,10.70
2023-03-25T10:12:53.344Z,10.60
2023-03-25T10:15:33.378Z,10.60
2023-03-25T10:18:18.395Z,10.70
2023-03-25T10:20:55.842Z,10.70
2023-03-25T10:23:32.021Z,10.80
2023-03-25T10:26:03.948Z,10.80
2023-03-25T10:28:39.419Z,10.90
2023-03-25T10:31:13.833Z,11.00
2023-03-25T10:33:46.131Z,11.00
2023-03-25T10:36:19.454Z,11.00
2023-03-25T10:38:54.564Z,11.10
2023-03-25T10:41:27.089Z,11.10
2023-03-25T10:43:56.134Z,11.10
2023-03-25T10:46:32.347Z,11.10
2023-03-25T10:49:00.426Z,11.20
2023-03-25T10:51:30.249Z,11.30
2023-03-25T10:53:59.806Z,11.40
2023-03-25T10:56:32.760Z,11.50
2023-03-25T10:59:06.272Z,11.60
2023-03-25T11:01:40.516Z,11.70
2023-03-25T11:04:11.549Z,12.00
2023-03-25T11:06:40.968Z,12.50
2023-03-25T11:09:15.519Z,12.90
2023-03-25T11:11:44.089Z,13.10
2023-03-25T11:14:12.836Z,13.20
2023-03-25T11:16:47.593Z,13.20
2023-03-25T11:19:21.503Z,13.30
2023-03-25T11:21:54.011Z,13.60
2023-03-25T11:24:24.201Z,14.10
2023-03-25T11:26:54.155Z,14.30
2023-03-25T11:29:27.129Z,14.20
2023-03-25T11:32:08.183Z,14.00
2023-03-25T11:34:42.418Z,13.60
2023-03-25T11:37:19.193Z,13.30
2023-03-25T11:39:55.159Z,13.30
2023-03-25T11:42:32.573Z,13.40
2023-03-25T11:45:02.417Z,13.70
2023-03-25T11:47:35.738Z,13.90
2023-03-25T11:50:05.485Z,14.10
2023-03-25T11:52:40.771Z,14.30
2023-03-25T11:55:18.501Z,14.50
2023-03-25T11:57:49.035Z,14.40
2023-03-25T12:00:39.123Z,14.30
2023-03-25T12:03:20.863Z,14.40
2023-03-25T12:06:00.583Z,14.40
2023-03-25T12:08:31.950Z,14.20
2023-03-25T12:11:06.871Z,14.00
2023-03-25T12:13:50.644Z,13.80
2023-03-25T12:16:29.617Z,13.70
2023-03-25T12:19:15.124Z,13.60
2023-03-25T12:22:08.988Z,13.40
2023-03-25T12:25:07.125Z,13.30
2023-03-25T12:27:45.597Z,13.20
2023-03-25T12:30:26.591Z,13.00
2023-03-25T12:33:01.357Z,13.00
2023-03-25T12:35:41.123Z,12.80
2023-03-25T12:38:32.666Z,12.60
2023-03-25T12:41:14.733Z,12.10
2023-03-25T12:44:05.381Z,11.40
2023-03-25T12:47:00.911Z,10.90
2023-03-25T12:49:42.961Z,10.70
2023-03-25T12:52:18.946Z,10.60
2023-03-25T12:54:57.498Z,10.70
2023-03-25T12:57:47.340Z,10.80
2023-03-25T13:00:33.321Z,10.90
2023-03-25T13:03:19.160Z,10.90
2023-03-25T13:05:51.653Z,10.90
2023-03-25T13:08:24.773Z,11.00
2023-03-25T13:11:02.727Z,10.90
2023-03-25T13:13:32.707Z,10.90
2023-03-25T13:16:06.354Z,10.90
2023-03-25T13:18:38.666Z,11.10
2023-03-25T13:21:14.106Z,11.20
2023-03-25T13:23:47.770Z,11.20
2023-03-25T13:26:21.094Z,11.30
2023-03-25T13:28:54.239Z,11.30
2023-03-25T13:31:25.102Z,11.30
2023-03-25T13:34:03.294Z,11.30
2023-03-25T13:36:37.805Z,11.30
2023-03-25T13:39:14.261Z,11.30
2023-03-25T13:41:45.741Z,11.20
2023-03-25T13:44:18.079Z,11.20
2023-03-25T13:46:49.253Z,11.20
2023-03-25T13:49:23.716Z,11.30
2023-03-25T13:51:51.752Z,11.40
2023-03-25T13:54:25.526Z,11.50
2023-03-25T13:57:43.039Z,11.60
2023-03-25T14:00:25.176Z,11.80
2023-03-25T14:03:27.571Z,12.10
2023-03-25T14:06:11.547Z,12.20
2023-03-25T14:09:36.087Z,12.40
2023-03-25T14:12:10.019Z,12.60
2023-03-25T14:14:42.034Z,12.90
2023-03-25T14:17:11.956Z,12.90
2023-03-25T14:19:42.553Z,13.00
2023-03-25T14:22:16.909Z,13.30
2023-03-25T14:24:47.589Z,13.50
2023-03-25T14:27:21.695Z,13.30
2023-03-25T14:29:56.800Z,13.10
2023-03-25T14:32:34.320Z,13.00
2023-03-25T14:35:59.262Z,12.80
2023-03-25T14:38:51.433Z,12.70
2023-03-25T14:41:58.422Z,12.60
2023-03-25T14:44:29.440Z,12.70
2023-03-25T14:47:02.973Z,12.50
2023-03-25T14:49:54.422Z,12.50
2023-03-25T14:52:30.133Z,12.50
2023-03-25T14:54:58.685Z,12.40
2023-03-25T14:57:30.728Z,12.30
2023-03-25T15:00:09.407Z,12.30
2023-03-25T15:02:38.957Z,12.20
2023-03-25T15:05:18.755Z,12.10
2023-03-25T15:07:50.170Z,12.10
2023-03-25T15:10:25.712Z,12.00
2023-03-25T15:13:03.204Z,12.10
2023-03-25T15:15:34.530Z,12.00
2023-03-25T15:18:02.620Z,12.00
2023-03-25T15:20:36.053Z,11.90
2023-03-25T15:23:33.076Z,11.90
2023-03-25T15:26:03.330Z,11.80
2023-03-25T15:28:47.535Z,11.80
2023-03-25T15:31:38.214Z,11.80
2023-03-25T15:34:16.969Z,11.80
2023-03-25T15:36:58.992Z,11.80
2023-03-25T15:39:39.312Z,11.80
2023-03-25T15:42:34.687Z,12.10
2023-03-25T15:45:20.849Z,12.40
2023-03-25T15:48:15.368Z,12.60
2023-03-25T15:50:58.401Z,12.60
2023-03-25T15:53:57.668Z,12.60
2023-03-25T15:56:28.484Z,12.60
2023-03-25T15:59:03.281Z,12.60
2023-03-25T16:01:35.002Z,12.50
2023-03-25T16:04:07.046Z,12.40
2023-03-25T16:06:41.962Z,12.40
2023-03-25T16:09:18.069Z,12.30
2023-03-25T16:11:46.993Z,12.20
2023-03-25T16:14:17.383Z,12.20
2023-03-25T16:16:49.587Z,12.20
2023-03-25T16:19:19.985Z,12.20
2023-03-25T16:21:50.158Z,12.10
2023-03-25T16:24:20.551Z,12.10
2023-03-25T16:26:49.993Z,12.00
2023-03-25T16:29:20.826Z,11.90
2023-03-25T16:31:57.960Z,11.70
2023-03-25T16:34:27.572Z,11.70
2023-03-25T16:36:56.965Z,11.60
2023-03-25T16:39:26.353Z,11.60
2023-03-25T16:42:02.370Z,11.50
2023-03-25T16:44:30.832Z,11.50
2023-03-25T16:47:02.107Z,11.50
2023-03-25T16:49:32.983Z,11.40
2023-03-25T16:52:04.535Z,11.40
2023-03-25T16:54:37.787Z,11.30
2023-03-25T16:57:09.176Z,11.30
2023-03-25T16:59:39.013Z,11.20
2023-03-25T17:02:25.876Z,11.20
2023-03-25T17:04:56.631Z,11.10
2023-03-25T17:07:28.666Z,11.10
2023-03-25T17:09:59.170Z,11.10
2023-03-25T17:12:29.896Z,11.00
2023-03-25T17:15:07.065Z,11.00
2023-03-25T17:17:43.697Z,10.90
2023-03-25T17:20:19.538Z,10.90
2023-03-25T17:23:00.548Z,10.90
2023-03-25T17:25:32.376Z,10.90
2023-03-25T17:28:23.241Z,10.90
2023-03-25T17:30:52.041Z,10.90
2023-03-25T17:33:33.931Z,10.90
2023-03-25T17:36:04.507Z,10.70
2023-03-25T17:38:36.621Z,10.60
2023-03-25T17:41:07.583Z,10.50
2023-03-25T17:43:37.672Z,10.40
2023-03-25T17:46:07.571Z,10.40
2023-03-25T17:48:37.563Z,10.40
2023-03-25T17:51:06.184Z,10.40
2023-03-25T17:53:34.339Z,10.30
2023-03-25T17:56:03.563Z,10.20
2023-03-25T17:58:32.159Z,10.20
2023-03-25T18:01:01.472Z,10.30
2023-03-25T18:03:32.570Z,10.10
2023-03-25T18:06:02.440Z,10.10
2023-03-25T18:08:31.067Z,10.00
2023-03-25T18:11:00.028Z,10.00
2023-03-25T18:13:28.268Z,9.90
2023-03-25T18:15:56.944Z,9.90
2023-03-25T18:18:26.806Z,9.90
2023-03-25T18:20:56.809Z,9.90
2023-03-25T18:23:26.357Z,9.90
2023-03-25T18:25:54.547Z,9.90
2023-03-25T18:28:22.786Z,9.80
2023-03-25T18:30:54.114Z,9.80
2023-03-25T18:33:22.882Z,9.80
2023-03-25T18:35:52.811Z,9.80
2023-03-25T18:38:24.404Z,9.70
2023-03-25T18:40:55.806Z,9.60
2023-03-25T18:43:24.248Z,9.60
2023-03-25T18:45:52.443Z,9.60
2023-03-25T18:48:22.394Z,9.50
2023-03-25T18:50:53.585Z,9.50
2023-03-25T18:53:23.175Z,9.50
2023-03-25T18:55:53.917Z,9.50
2023-03-25T18:58:23.693Z,9.50
2023-03-25T19:00:53.174Z,9.40
2023-03-25T19:03:30.266Z,9.40
2023-03-25T19:05:59.763Z,9.40
2023-03-25T19:08:29.007Z,9.40
2023-03-25T19:11:08.135Z,9.40
2023-03-25T19:13:40.553Z,9.30
2023-03-25T19:16:09.171Z,9.30
2023-03-25T19:18:37.382Z,9.30
2023-03-25T19:21:06.243Z,9.30
2023-03-25T19:23:35.159Z,9.20
2023-03-25T19:26:04.737Z,9.10
2023-03-25T19:28:32.720Z,9.10
2023-03-25T19:31:02.119Z,9.10
2023-03-25T19:33:31.501Z,9.10
2023-03-25T19:36:01.848Z,9.00
2023-03-25T19:38:30.686Z,9.00
2023-03-25T19:41:05.906Z,9.00
2023-03-25T19:43:33.994Z,9.00
2023-03-25T19:46:02.309Z,8.90
2023-03-25T19:48:30.850Z,8.90
2023-03-25T19:50:59.567Z,8.90
2023-03-25T19:53:28.756Z,8.90
2023-03-25T19:55:57.375Z,8.90
2023-03-25T19:58:27.062Z,8.90
2023-03-25T20:00:55.062Z,8.90
2023-03-25T20:03:24.042Z,8.80
2023-03-25T20:05:57.520Z,8.80
2023-03-25T20:08:26.503Z,8.80
2023-03-25T20:10:54.771Z,8.80
2023-03-25T20:13:23.301Z,8.80
2023-03-25T20:15:53.904Z,8.80
2023-03-25T20:18:22.488Z,8.70
2023-03-25T20:20:50.640Z,8.80
2023-03-25T20:23:18.757Z,8.70
2023-03-25T20:25:47.444Z,8.60
2023-03-25T20:28:18.539Z,8.60
2023-03-25T20:30:46.782Z,8.70
2023-03-25T20:33:16.372Z,8.70
2023-03-25T20:35:44.924Z,8.70
2023-03-25T20:38:14.342Z,8.70
2023-03-25T20:40:44.840Z,8.80
2023-03-25T20:43:15.117Z,8.70
2023-03-25T20:45:44.230Z,8.70
2023-03-25T20:48:12.372Z,8.70
2023-03-25T20:50:41.802Z,8.70
2023-03-25T20:53:09.794Z,8.80
2023-03-25T20:55:37.916Z,8.70
2023-03-25T20:58:06.248Z,8.60
2023-03-25T21:00:34.601Z,8.60
2023-03-25T21:03:03.360Z,8.60
2023-03-25T21:05:31.650Z,8.60
2023-03-25T21:08:01.085Z,8.60
2023-03-25T21:10:29.119Z,8.60
2023-03-25T21:12:57.219Z,8.60
2023-03-25T21:15:25.284Z,8.60
2023-03-25T21:17:53.462Z,8.50
2023-03-25T21:20:23.878Z,8.50
2023-03-25T21:22:52.115Z,8.60
2023-03-25T21:25:21.602Z,8.50
2023-03-25T21:27:49.924Z,8.50
2023-03-25T21:30:18.061Z,8.60
2023-03-25T21:32:46.227Z,8.60
2023-03-25T21:35:14.768Z,8.60
2023-03-25T21:37:42.761Z,8.60
2023-03-25T21:40:12.715Z,8.50
2023-03-25T21:42:43.450Z,8.50
2023-03-25T21:45:13.665Z,8.50
2023-03-25T21:47:41.916Z,8.50
2023-03-25T21:50:12.642Z,8.50
2023-03-25T21:52:46.936Z,8.50
2023-03-25T21:55:16.022Z,8.50
2023-03-25T21:57:47.708Z,8.40
2023-03-25T22:00:18.265Z,8.50
2023-03-25T22:02:47.696Z,8.50
2023-03-25T22:05:17.463Z,8.50
2023-03-25T22:07:45.855Z,8.50
2023-03-25T22:10:13.954Z,8.50
2023-03-25T22:12:42.124Z,8.50
2023-03-25T22:15:12.758Z,8.50
2023-03-25T22:17:41.199Z,8.50
2023-03-25T22:20:10.984Z,8.50
2023-03-25T22:22:39.106Z,8.50
2023-03-25T22:25:08.076Z,8.50
2023-03-25T22:27:36.824Z,8.50
2023-03-25T22:30:06.524Z,8.60
2023-03-25T22:32:36.974Z,8.50
2023-03-25T22:35:05.577Z,8.50
2023-03-25T22:37:36.978Z,8.50
2023-03-25T22:40:08.742Z,8.50
2023-03-25T22:42:36.936Z,8.50
2023-03-25T22:45:07.910Z,8.50
2023-03-25T22:47:37.361Z,8.50
2023-03-25T22:50:06.188Z,8.50
2023-03-25T22:52:34.246Z,8.50
2023-03-25T22:55:02.665Z,8.50
2023-03-25T22:57:31.018Z,8.50
2023-03-25T22:59:59.114Z,8.50
2023-03-25T23:02:27.449Z,8.50
2023-03-25T23:04:58.154Z,8.50
2023-03-25T23:07:26.531Z,8.50
2023-03-25T23:09:54.520Z,8.50
2023-03-25T23:12:24.140Z,8.60
2023-03-25T23:14:55.674Z,8.50
2023-03-25T23:17:24.117Z,8.50
2023-03-25T23:19:52.861Z,8.50
2023-03-25T23:22:22.385Z,8.50
2023-03-25T23:24:50.483Z,8.50
2023-03-25T23:27:18.675Z,8.50
2023-03-25T23:29:46.712Z,8.50
2023-03-25T23:32:14.868Z,8.50
2023-03-25T23:34:42.883Z,8.50
2023-03-25T23:37:10.903Z,8.60
2023-03-25T23:39:42.177Z,8.50
2023-03-25T23:42:10.358Z,8.40
2023-03-25T23:44:38.445Z,8.40
2023-03-25T23:47:06.880Z,8.40
2023-03-25T23:49:38.603Z,8.40
2023-03-25T23:52:11.177Z,8.40
2023-03-25T23:54:41.518Z,8.40
2023-03-25T23:57:09.573Z,8.40
2023-03-25T23:59:37.626Z,8.40
